createdAt,value
2024-01-24T00:00:08.313Z,84.70
2024-01-24T00:01:08.302Z,84.91
2024-01-24T00:02:08.161Z,84.60
2024-01-24T00:03:08.251Z,84.29
2024-01-24T00:04:08.218Z,84.29
2024-01-24T00:05:08.141Z,84.50
2024-01-24T00:06:08.222Z,84.39
2024-01-24T00:07:08.112Z,84.70
2024-01-24T00:08:08.089Z,84.60
2024-01-24T00:09:08.079Z,84.60
2024-01-24T00:10:08.050Z,84.60
2024-01-24T00:11:08.042Z,84.60
2024-01-24T00:12:08.051Z,84.39
2024-01-24T00:13:08.054Z,84.15
2024-01-24T00:14:07.998Z,84.05
2024-01-24T00:15:08.000Z,84.25
2024-01-24T00:16:07.977Z,84.25
2024-01-24T00:17:07.952Z,83.94
2024-01-24T00:18:08.013Z,84.15
2024-01-24T00:19:07.984Z,84.66
2024-01-24T00:20:07.916Z,84.56
2024-01-24T00:21:07.902Z,84.25
2024-01-24T00:22:07.908Z,84.36
2024-01-24T00:23:07.903Z,84.25
2024-01-24T00:24:07.876Z,84.05
2024-01-24T00:25:07.858Z,84.25
2024-01-24T00:26:07.852Z,84.56
2024-01-24T00:27:07.831Z,84.87
2024-01-24T00:28:07.810Z,84.66
2024-01-24T00:29:07.813Z,84.45
2024-01-24T00:30:07.792Z,84.36
2024-01-24T00:31:07.780Z,84.36
2024-01-24T00:32:07.774Z,84.56
2024-01-24T00:33:07.750Z,84.45
2024-01-24T00:34:07.901Z,84.56
2024-01-24T00:35:07.740Z,84.56
2024-01-24T00:36:07.712Z,84.77
2024-01-24T00:37:07.707Z,84.97
2024-01-24T00:38:07.690Z,84.97
2024-01-24T00:39:07.706Z,85.08
2024-01-24T00:40:07.674Z,85.18
2024-01-24T00:41:07.651Z,85.39
2024-01-24T00:42:07.632Z,85.60
2024-01-24T00:43:07.635Z,85.80
2024-01-24T00:44:07.618Z,85.91
2024-01-24T00:45:07.603Z,86.11
2024-01-24T00:46:07.585Z,86.52
2024-01-24T00:47:07.578Z,86.73
2024-01-24T00:48:07.603Z,86.94
2024-01-24T00:49:07.639Z,87.15
2024-01-24T00:50:07.539Z,87.15
2024-01-24T00:51:07.528Z,87.56
2024-01-24T00:52:07.510Z,87.76
2024-01-24T00:53:07.497Z,87.87
2024-01-24T00:54:07.486Z,87.87
2024-01-24T00:55:07.535Z,87.76
2024-01-24T00:56:07.457Z,88.18
2024-01-24T00:57:07.449Z,88.07
2024-01-24T00:58:07.433Z,88.24
2024-01-24T00:59:07.443Z,88.24
2024-01-24T01:00:07.450Z,88.34
2024-01-24T01:01:07.566Z,88.24
2024-01-24T01:02:07.380Z,88.04
2024-01-24T01:03:07.407Z,88.04
2024-01-24T01:04:07.504Z,88.20
2024-01-24T01:05:07.352Z,88.31
2024-01-24T01:06:07.363Z,88.31
2024-01-24T01:07:07.315Z,88.20
2024-01-24T01:08:07.300Z,88.31
2024-01-24T01:09:07.287Z,88.20
2024-01-24T01:10:07.279Z,88.20
2024-01-24T01:11:07.295Z,88.10
2024-01-24T01:12:07.239Z,87.89
2024-01-24T01:13:07.238Z,87.79
2024-01-24T01:14:07.221Z,87.79
2024-01-24T01:15:07.220Z,87.68
2024-01-24T01:16:07.208Z,87.68
2024-01-24T01:17:07.189Z,87.68
2024-01-24T01:18:07.227Z,87.79
2024-01-24T01:19:07.268Z,87.79
2024-01-24T01:20:07.170Z,87.89
2024-01-24T01:21:07.144Z,87.68
2024-01-24T01:22:07.187Z,87.79
2024-01-24T01:23:07.105Z,87.79
2024-01-24T01:24:07.099Z,87.89
2024-01-24T01:25:07.097Z,87.79
2024-01-24T01:26:07.069Z,87.99
2024-01-24T01:27:07.086Z,87.99
2024-01-24T01:28:07.048Z,87.99
2024-01-24T01:29:07.034Z,88.10
2024-01-24T01:30:07.018Z,88.20
2024-01-24T01:31:07.003Z,88.41
2024-01-24T01:32:06.990Z,88.51
2024-01-24T01:33:07.194Z,88.71
2024-01-24T01:34:07.088Z,88.82
2024-01-24T01:35:06.944Z,89.17
2024-01-24T01:36:17.260Z,89.44
2024-01-24T01:37:07.991Z,89.44
2024-01-24T01:38:06.920Z,89.44
2024-01-24T01:39:06.899Z,89.34
2024-01-24T01:40:06.881Z,89.44
2024-01-24T01:41:06.868Z,89.44
2024-01-24T01:42:06.862Z,89.54
2024-01-24T01:43:06.864Z,89.65
2024-01-24T01:44:06.838Z,89.75
2024-01-24T01:45:06.817Z,89.92
2024-01-24T01:46:06.813Z,89.81
2024-01-24T01:47:06.792Z,90.12
2024-01-24T01:48:06.891Z,90.12
2024-01-24T01:49:06.912Z,90.33
2024-01-24T01:50:06.760Z,90.12
2024-01-24T01:51:06.760Z,89.92
2024-01-24T01:52:06.770Z,90.12
2024-01-24T01:53:06.722Z,90.22
2024-01-24T01:54:06.702Z,90.19
2024-01-24T01:55:06.690Z,90.12
2024-01-24T01:56:06.681Z,90.39
2024-01-24T01:57:06.677Z,90.39
2024-01-24T01:58:06.649Z,90.39
2024-01-24T01:59:06.771Z,90.80
2024-01-24T02:00:06.667Z,91.01
2024-01-24T02:01:06.825Z,91.22
2024-01-24T02:02:06.597Z,91.42
2024-01-24T02:03:06.652Z,91.73
2024-01-24T02:04:06.588Z,91.32
2024-01-24T02:05:06.577Z,91.38
2024-01-24T02:06:06.674Z,91.48
2024-01-24T02:07:06.680Z,92.00
2024-01-24T02:08:06.549Z,91.89
2024-01-24T02:09:06.505Z,92.00
2024-01-24T02:10:06.510Z,92.00
2024-01-24T02:11:06.482Z,91.79
2024-01-24T02:12:06.471Z,92.10
2024-01-24T02:13:06.451Z,92.10
2024-01-24T02:14:06.440Z,92.93
2024-01-24T02:15:06.500Z,93.24
2024-01-24T02:16:06.433Z,93.75
2024-01-24T02:17:06.409Z,94.02
2024-01-24T02:18:06.473Z,93.81
2024-01-24T02:19:06.564Z,94.95
2024-01-24T02:20:06.411Z,94.74
2024-01-24T02:21:06.355Z,94.28
2024-01-24T02:22:06.354Z,94.59
2024-01-24T02:23:06.345Z,95.31
2024-01-24T02:24:06.316Z,95.10
2024-01-24T02:25:06.312Z,95.68
2024-01-24T02:26:06.291Z,95.68
2024-01-24T02:27:06.277Z,95.78
2024-01-24T02:28:06.324Z,95.84
2024-01-24T02:29:06.250Z,95.74
2024-01-24T02:30:06.261Z,95.70
2024-01-24T02:31:06.260Z,94.98
2024-01-24T02:32:06.207Z,94.67
2024-01-24T02:33:06.385Z,94.77
2024-01-24T02:34:06.389Z,94.77
2024-01-24T02:35:06.173Z,94.77
2024-01-24T02:36:06.167Z,94.73
2024-01-24T02:37:06.154Z,94.87
2024-01-24T02:38:06.138Z,94.98
2024-01-24T02:39:06.116Z,95.08
2024-01-24T02:40:06.120Z,94.87
2024-01-24T02:41:06.096Z,95.03
2024-01-24T02:42:06.098Z,94.83
2024-01-24T02:43:06.085Z,94.42
2024-01-24T02:44:06.051Z,94.31
2024-01-24T02:45:06.054Z,94.62
2024-01-24T02:46:06.044Z,94.48
2024-01-24T02:47:06.043Z,93.86
2024-01-24T02:48:06.166Z,93.65
2024-01-24T02:49:06.028Z,93.76
2024-01-24T02:50:05.981Z,93.49
2024-01-24T02:51:05.959Z,93.70
2024-01-24T02:52:05.959Z,93.55
2024-01-24T02:53:05.942Z,93.55
2024-01-24T02:54:05.958Z,93.44
2024-01-24T02:55:05.908Z,93.35
2024-01-24T02:56:05.909Z,93.24
2024-01-24T02:57:05.989Z,93.35
2024-01-24T02:58:05.876Z,92.93
2024-01-24T02:59:05.860Z,92.83
2024-01-24T03:00:05.846Z,92.69
2024-01-24T03:01:05.966Z,92.58
2024-01-24T03:02:05.831Z,92.48
2024-01-24T03:03:05.904Z,92.07
2024-01-24T03:04:05.862Z,92.07
2024-01-24T03:05:05.785Z,91.72
2024-01-24T03:06:05.797Z,91.76
2024-01-24T03:07:05.907Z,91.76
2024-01-24T03:08:05.754Z,91.76
2024-01-24T03:09:05.734Z,91.97
2024-01-24T03:10:05.750Z,91.97
2024-01-24T03:11:05.706Z,91.61
2024-01-24T03:12:05.699Z,91.61
2024-01-24T03:13:05.738Z,91.51
2024-01-24T03:14:05.668Z,91.51
2024-01-24T03:15:05.653Z,91.41
2024-01-24T03:16:05.634Z,91.27
2024-01-24T03:17:05.633Z,91.10
2024-01-24T03:18:05.791Z,90.80
2024-01-24T03:19:05.685Z,90.89
2024-01-24T03:20:05.593Z,91.10
2024-01-24T03:21:05.578Z,91.20
2024-01-24T03:22:05.569Z,91.20
2024-01-24T03:23:05.939Z,91.41
2024-01-24T03:24:05.537Z,91.27
2024-01-24T03:25:05.655Z,91.06
2024-01-24T03:26:05.542Z,90.95
2024-01-24T03:27:05.502Z,90.65
2024-01-24T03:28:05.488Z,90.95
2024-01-24T03:29:05.478Z,90.85
2024-01-24T03:30:05.470Z,90.95
2024-01-24T03:31:05.470Z,91.00
2024-01-24T03:32:05.439Z,90.75
2024-01-24T03:33:05.517Z,90.65
2024-01-24T03:34:05.773Z,90.55
2024-01-24T03:35:05.476Z,90.44
2024-01-24T03:36:05.393Z,90.65
2024-01-24T03:37:05.393Z,90.44
2024-01-24T03:38:05.359Z,90.44
2024-01-24T03:39:05.368Z,90.44
2024-01-24T03:40:05.333Z,90.59
2024-01-24T03:41:05.349Z,90.75
2024-01-24T03:42:05.310Z,90.65
2024-01-24T03:43:05.301Z,90.55
2024-01-24T03:44:05.368Z,90.59
2024-01-24T03:45:05.273Z,90.65
2024-01-24T03:46:05.267Z,90.75
2024-01-24T03:47:05.250Z,90.75
2024-01-24T03:48:05.268Z,90.75
2024-01-24T03:49:05.345Z,90.59
2024-01-24T03:50:05.212Z,90.75
2024-01-24T03:51:05.248Z,90.85
2024-01-24T03:52:05.223Z,90.80
2024-01-24T03:53:05.175Z,90.89
2024-01-24T03:54:05.190Z,90.75
2024-01-24T03:55:05.157Z,90.89
2024-01-24T03:56:05.128Z,90.85
2024-01-24T03:57:05.115Z,90.85
2024-01-24T03:58:05.119Z,90.95
2024-01-24T03:59:05.089Z,90.85
2024-01-24T04:00:05.090Z,90.75
2024-01-24T04:01:05.225Z,90.75
2024-01-24T04:02:05.078Z,90.95
2024-01-24T04:03:05.042Z,90.95
2024-01-24T04:04:05.250Z,91.06
2024-01-24T04:05:05.013Z,91.06
2024-01-24T04:06:05.060Z,90.95
2024-01-24T04:07:05.129Z,90.95
2024-01-24T04:08:04.980Z,90.85
2024-01-24T04:09:04.990Z,91.06
2024-01-24T04:10:04.956Z,91.16
2024-01-24T04:11:04.949Z,91.16
2024-01-24T04:12:04.945Z,91.16
2024-01-24T04:13:04.912Z,91.27
2024-01-24T04:14:04.907Z,91.27
2024-01-24T04:15:04.888Z,91.37
2024-01-24T04:16:04.943Z,91.67
2024-01-24T04:17:04.867Z,91.57
2024-01-24T04:18:04.912Z,91.67
2024-01-24T04:19:04.882Z,91.67
2024-01-24T04:20:04.828Z,91.63
2024-01-24T04:21:04.822Z,91.63
2024-01-24T04:22:04.797Z,91.42
2024-01-24T04:23:04.815Z,91.42
2024-01-24T04:24:04.779Z,91.42
2024-01-24T04:25:04.778Z,91.22
2024-01-24T04:26:04.747Z,91.33
2024-01-24T04:27:04.755Z,91.42
2024-01-24T04:28:04.790Z,91.53
2024-01-24T04:29:04.726Z,91.42
2024-01-24T04:30:04.702Z,91.42
2024-01-24T04:31:04.744Z,91.12
2024-01-24T04:32:04.715Z,91.12
2024-01-24T04:33:04.833Z,91.12
2024-01-24T04:34:04.958Z,90.97
2024-01-24T04:35:04.670Z,91.02
2024-01-24T04:36:04.657Z,91.12
2024-01-24T04:37:04.611Z,91.12
2024-01-24T04:38:04.632Z,91.02
2024-01-24T04:39:04.645Z,91.02
2024-01-24T04:40:04.636Z,91.02
2024-01-24T04:41:04.561Z,91.12
2024-01-24T04:42:11.805Z,91.12
2024-01-24T04:43:04.585Z,90.97
2024-01-24T04:44:04.535Z,90.91
2024-01-24T04:45:04.511Z,90.91
2024-01-24T04:46:04.581Z,90.81
2024-01-24T04:47:04.494Z,90.67
2024-01-24T04:48:04.525Z,90.71
2024-01-24T04:49:04.565Z,90.71
2024-01-24T04:50:04.544Z,90.81
2024-01-24T04:51:04.436Z,90.81
2024-01-24T04:52:04.434Z,90.81
2024-01-24T04:53:04.436Z,90.91
2024-01-24T04:54:04.412Z,91.12
2024-01-24T04:55:04.413Z,91.12
2024-01-24T04:56:04.373Z,91.12
2024-01-24T04:57:04.386Z,90.91
2024-01-24T04:58:04.419Z,90.81
2024-01-24T04:59:04.348Z,90.91
2024-01-24T05:00:04.333Z,91.02
2024-01-24T05:01:04.425Z,91.02
2024-01-24T05:02:04.302Z,91.02
2024-01-24T05:03:04.307Z,91.02
2024-01-24T05:04:04.519Z,91.12
2024-01-24T05:05:04.268Z,91.37
2024-01-24T05:06:10.170Z,91.37
2024-01-24T05:07:05.331Z,91.37
2024-01-24T05:08:04.231Z,91.42
2024-01-24T05:09:04.229Z,91.33
2024-01-24T05:10:04.200Z,91.42
2024-01-24T05:11:04.228Z,91.53
2024-01-24T05:12:04.192Z,91.53
2024-01-24T05:13:04.184Z,91.42
2024-01-24T05:14:04.140Z,91.47
2024-01-24T05:15:04.148Z,91.67
2024-01-24T05:16:04.127Z,91.78
2024-01-24T05:17:04.120Z,91.88
2024-01-24T05:18:04.169Z,91.88
2024-01-24T05:19:04.180Z,91.99
2024-01-24T05:20:04.071Z,92.08
2024-01-24T05:21:04.057Z,92.08
2024-01-24T05:22:04.076Z,92.19
2024-01-24T05:23:04.022Z,92.08
2024-01-24T05:24:04.025Z,92.08
2024-01-24T05:25:04.039Z,92.29
2024-01-24T05:26:03.993Z,92.40
2024-01-24T05:27:04.014Z,92.50
2024-01-24T05:28:03.964Z,92.70
2024-01-24T05:29:03.945Z,92.80
2024-01-24T05:30:12.398Z,92.80
2024-01-24T05:31:05.017Z,92.80
2024-01-24T05:32:03.945Z,92.80
2024-01-24T05:33:03.956Z,92.60
2024-01-24T05:34:03.990Z,92.70
2024-01-24T05:35:03.910Z,92.76
2024-01-24T05:36:03.900Z,92.80
2024-01-24T05:37:03.925Z,92.70
2024-01-24T05:38:03.821Z,92.70
2024-01-24T05:39:03.804Z,92.80
2024-01-24T05:40:03.939Z,92.80
2024-01-24T05:41:03.779Z,92.80
2024-01-24T05:42:03.811Z,92.66
2024-01-24T05:43:03.971Z,92.66
2024-01-24T05:44:03.743Z,92.66
2024-01-24T05:45:03.744Z,92.70
2024-01-24T05:46:03.779Z,92.80
2024-01-24T05:47:03.700Z,92.86
2024-01-24T05:48:03.788Z,92.80
2024-01-24T05:49:03.827Z,93.01
2024-01-24T05:50:03.679Z,92.86
2024-01-24T05:51:03.648Z,92.86
2024-01-24T05:52:03.693Z,92.80
2024-01-24T05:53:03.629Z,93.01
2024-01-24T05:54:03.604Z,93.21
2024-01-24T05:55:03.638Z,93.21
2024-01-24T05:56:03.584Z,93.21
2024-01-24T05:57:03.600Z,93.32
2024-01-24T05:58:03.653Z,93.42
2024-01-24T05:59:03.574Z,93.17
2024-01-24T06:00:03.643Z,93.12
2024-01-24T06:01:03.594Z,93.21
2024-01-24T06:02:03.521Z,93.21
2024-01-24T06:03:03.499Z,93.42
2024-01-24T06:04:03.559Z,93.59
2024-01-24T06:05:03.534Z,93.59
2024-01-24T06:06:03.528Z,93.38
2024-01-24T06:07:03.624Z,93.17
2024-01-24T06:08:03.434Z,92.97
2024-01-24T06:09:03.425Z,92.97
2024-01-24T06:10:03.464Z,92.76
2024-01-24T06:11:03.390Z,92.76
2024-01-24T06:12:03.371Z,92.66
2024-01-24T06:13:03.364Z,92.61
2024-01-24T06:14:03.338Z,92.51
2024-01-24T06:15:03.362Z,92.31
2024-01-24T06:16:03.398Z,92.41
2024-01-24T06:17:03.293Z,92.46
2024-01-24T06:18:03.301Z,92.51
2024-01-24T06:19:03.340Z,92.51
2024-01-24T06:20:03.276Z,92.51
2024-01-24T06:21:03.251Z,92.55
2024-01-24T06:22:03.238Z,92.41
2024-01-24T06:23:03.228Z,92.35
2024-01-24T06:24:03.204Z,92.41
2024-01-24T06:25:03.337Z,92.51
2024-01-24T06:26:03.181Z,92.51
2024-01-24T06:27:03.168Z,92.55
2024-01-24T06:28:03.172Z,92.66
2024-01-24T06:29:03.148Z,92.76
2024-01-24T06:30:18.314Z,92.72
2024-01-24T06:31:04.249Z,92.51
2024-01-24T06:32:03.104Z,92.21
2024-01-24T06:33:03.112Z,92.10
2024-01-24T06:34:03.126Z,92.10
2024-01-24T06:35:03.065Z,92.10
2024-01-24T06:36:03.051Z,92.21
2024-01-24T06:37:03.028Z,92.35
2024-01-24T06:38:03.033Z,92.46
2024-01-24T06:39:03.003Z,92.46
2024-01-24T06:40:03.018Z,92.55
2024-01-24T06:41:03.013Z,92.66
2024-01-24T06:42:02.980Z,92.66
2024-01-24T06:43:02.990Z,92.55
2024-01-24T06:44:02.945Z,92.61
2024-01-24T06:45:02.934Z,92.55
2024-01-24T06:46:02.982Z,92.61
2024-01-24T06:47:02.930Z,92.55
2024-01-24T06:48:02.955Z,92.55
2024-01-24T06:49:03.013Z,92.66
2024-01-24T06:50:02.854Z,92.86
2024-01-24T06:51:02.845Z,92.86
2024-01-24T06:52:02.831Z,92.86
2024-01-24T06:53:02.827Z,92.86
2024-01-24T06:54:02.802Z,92.86
2024-01-24T06:55:02.833Z,92.76
2024-01-24T06:56:02.778Z,92.66
2024-01-24T06:57:02.785Z,92.66
2024-01-24T06:58:03.779Z,92.66
2024-01-24T06:59:02.742Z,92.55
2024-01-24T07:00:02.739Z,92.66
2024-01-24T07:01:02.783Z,92.66
2024-01-24T07:02:02.745Z,92.76
2024-01-24T07:03:02.712Z,92.86
2024-01-24T07:04:02.831Z,92.86
2024-01-24T07:05:02.742Z,92.86
2024-01-24T07:06:02.733Z,92.86
2024-01-24T07:07:02.740Z,92.86
2024-01-24T07:08:02.618Z,92.86
2024-01-24T07:09:02.622Z,92.86
2024-01-24T07:10:02.677Z,92.76
2024-01-24T07:11:02.591Z,92.86
2024-01-24T07:12:02.569Z,92.86
2024-01-24T07:13:02.700Z,92.86
2024-01-24T07:14:02.562Z,93.07
2024-01-24T07:15:02.572Z,93.27
2024-01-24T07:16:02.650Z,93.38
2024-01-24T07:17:02.510Z,93.42
2024-01-24T07:18:02.675Z,93.73
2024-01-24T07:19:02.601Z,93.73
2024-01-24T07:20:02.520Z,93.83
2024-01-24T07:21:02.467Z,93.73
2024-01-24T07:22:04.850Z,93.83
2024-01-24T07:23:02.428Z,94.04
2024-01-24T07:24:02.423Z,94.24
2024-01-24T07:25:02.419Z,94.24
2024-01-24T07:26:02.392Z,94.14
2024-01-24T07:27:02.391Z,94.14
2024-01-24T07:28:02.452Z,94.14
2024-01-24T07:29:02.365Z,94.34
2024-01-24T07:30:02.347Z,94.45
2024-01-24T07:31:02.375Z,94.45
2024-01-24T07:32:02.327Z,94.55
2024-01-24T07:33:02.315Z,94.55
2024-01-24T07:34:02.393Z,94.65
2024-01-24T07:35:02.369Z,94.85
2024-01-24T07:36:02.260Z,95.06
2024-01-24T07:37:02.411Z,94.96
2024-01-24T07:38:02.233Z,95.17
2024-01-24T07:39:02.227Z,95.37
2024-01-24T07:40:02.397Z,95.47
2024-01-24T07:41:02.195Z,95.47
2024-01-24T07:42:02.209Z,95.57
2024-01-24T07:43:02.217Z,95.68
2024-01-24T07:44:02.167Z,95.68
2024-01-24T07:45:02.152Z,95.78
2024-01-24T07:46:02.209Z,95.89
2024-01-24T07:47:02.123Z,95.98
2024-01-24T07:48:02.156Z,96.09
2024-01-24T07:49:02.134Z,96.09
2024-01-24T07:50:02.170Z,95.98
2024-01-24T07:51:02.102Z,95.98
2024-01-24T07:52:02.223Z,96.09
2024-01-24T07:53:02.053Z,96.19
2024-01-24T07:54:02.027Z,96.30
2024-01-24T07:55:02.124Z,96.40
2024-01-24T07:56:10.705Z,96.45
2024-01-24T07:57:03.026Z,96.35
2024-01-24T07:58:02.222Z,96.25
2024-01-24T07:59:01.987Z,96.04
2024-01-24T08:00:02.000Z,96.04
2024-01-24T08:01:01.989Z,96.04
2024-01-24T08:02:02.028Z,95.94
2024-01-24T08:03:01.922Z,95.79
2024-01-24T08:04:02.093Z,95.84
2024-01-24T08:05:02.096Z,95.94
2024-01-24T08:06:01.939Z,96.15
2024-01-24T08:07:01.975Z,96.10
2024-01-24T08:08:01.843Z,96.00
2024-01-24T08:09:01.844Z,95.90
2024-01-24T08:10:01.881Z,96.00
2024-01-24T08:11:01.805Z,96.10
2024-01-24T08:12:01.787Z,96.00
2024-01-24T08:13:01.828Z,96.10
2024-01-24T08:14:01.772Z,96.20
2024-01-24T08:15:01.765Z,96.10
2024-01-24T08:16:01.826Z,96.20
2024-01-24T08:17:01.749Z,96.20
2024-01-24T08:18:01.812Z,96.31
2024-01-24T08:19:01.834Z,96.51
2024-01-24T08:20:01.783Z,96.72
2024-01-24T08:21:01.704Z,96.62
2024-01-24T08:22:01.758Z,96.51
2024-01-24T08:23:01.697Z,96.51
2024-01-24T08:24:01.636Z,96.51
2024-01-24T08:25:01.680Z,96.62
2024-01-24T08:26:01.616Z,96.51
2024-01-24T08:27:01.622Z,96.41
2024-01-24T08:28:01.701Z,96.51
2024-01-24T08:29:01.572Z,96.41
2024-01-24T08:30:01.560Z,96.41
2024-01-24T08:31:01.600Z,96.51
2024-01-24T08:32:01.529Z,96.41
2024-01-24T08:33:01.693Z,96.41
2024-01-24T08:34:01.685Z,96.31
2024-01-24T08:35:01.642Z,96.31
2024-01-24T08:36:01.490Z,96.31
2024-01-24T08:37:01.506Z,96.31
2024-01-24T08:38:01.468Z,96.31
2024-01-24T08:39:01.466Z,96.31
2024-01-24T08:40:01.487Z,96.16
2024-01-24T08:41:01.417Z,96.06
2024-01-24T08:42:01.508Z,95.95
2024-01-24T08:43:01.428Z,95.86
2024-01-24T08:44:01.392Z,95.95
2024-01-24T08:45:01.376Z,95.86
2024-01-24T08:46:01.455Z,95.75
2024-01-24T08:47:01.343Z,95.75
2024-01-24T08:48:01.370Z,95.86
2024-01-24T08:49:01.426Z,95.86
2024-01-24T08:50:01.418Z,95.86
2024-01-24T08:51:01.341Z,95.86
2024-01-24T08:52:01.394Z,95.75
2024-01-24T08:53:01.269Z,95.86
2024-01-24T08:54:01.291Z,95.86
2024-01-24T08:55:01.704Z,95.86
2024-01-24T08:56:01.216Z,95.91
2024-01-24T08:57:01.231Z,96.01
2024-01-24T08:58:01.352Z,96.26
2024-01-24T08:59:01.198Z,96.47
2024-01-24T09:00:01.198Z,96.47
2024-01-24T09:01:01.171Z,96.53
2024-01-24T09:02:01.197Z,96.78
2024-01-24T09:03:01.138Z,96.78
2024-01-24T09:04:01.144Z,96.63
2024-01-24T09:05:01.232Z,96.53
2024-01-24T09:06:01.238Z,96.53
2024-01-24T09:07:01.130Z,96.83
2024-01-24T09:08:01.072Z,96.83
2024-01-24T09:09:01.108Z,96.83
2024-01-24T09:10:01.143Z,96.83
2024-01-24T09:11:01.059Z,96.73
2024-01-24T09:12:01.029Z,96.53
2024-01-24T09:13:01.140Z,96.42
2024-01-24T09:14:01.002Z,96.28
2024-01-24T09:15:00.984Z,96.07
2024-01-24T09:16:00.986Z,95.97
2024-01-24T09:17:00.953Z,95.97
2024-01-24T09:18:01.061Z,95.97
2024-01-24T09:19:00.990Z,95.87
2024-01-24T09:20:01.057Z,95.87
2024-01-24T09:21:00.900Z,95.76
2024-01-24T09:22:00.985Z,95.66
2024-01-24T09:23:00.881Z,95.56
2024-01-24T09:24:00.871Z,95.56
2024-01-24T09:25:03.540Z,95.66
2024-01-24T09:26:00.841Z,95.56
2024-01-24T09:27:00.848Z,95.46
2024-01-24T09:28:00.895Z,95.36
2024-01-24T09:29:00.813Z,95.15
2024-01-24T09:30:00.784Z,95.15
2024-01-24T09:31:00.829Z,95.00
2024-01-24T09:32:00.770Z,95.00
2024-01-24T09:33:00.921Z,94.95
2024-01-24T09:34:00.990Z,94.80
2024-01-24T09:35:00.931Z,94.70
2024-01-24T09:36:00.774Z,94.59
2024-01-24T09:37:00.743Z,94.59
2024-01-24T09:38:00.710Z,94.49
2024-01-24T09:39:00.680Z,94.49
2024-01-24T09:40:00.828Z,94.49
2024-01-24T09:41:00.718Z,94.39
2024-01-24T09:42:00.658Z,94.29
2024-01-24T09:43:00.697Z,94.49
2024-01-24T09:44:00.646Z,94.39
2024-01-24T09:45:00.597Z,94.39
2024-01-24T09:46:00.643Z,94.49
2024-01-24T09:47:00.573Z,94.59
2024-01-24T09:48:00.585Z,94.49
2024-01-24T09:49:00.712Z,94.49
2024-01-24T09:50:00.628Z,94.49
2024-01-24T09:51:00.529Z,94.49
2024-01-24T09:52:00.624Z,94.59
2024-01-24T09:53:00.506Z,94.49
2024-01-24T09:54:00.488Z,94.39
2024-01-24T09:55:00.688Z,94.29
2024-01-24T09:56:00.485Z,94.18
2024-01-24T09:57:00.489Z,94.18
2024-01-24T09:58:00.546Z,93.88
2024-01-24T09:59:00.454Z,93.88
2024-01-24T10:00:00.401Z,93.98
2024-01-24T10:01:00.477Z,93.77
2024-01-24T10:02:00.440Z,93.52
2024-01-24T10:03:00.431Z,93.32
2024-01-24T10:04:00.492Z,93.32
2024-01-24T10:05:00.412Z,93.22
2024-01-24T10:06:00.421Z,93.22
2024-01-24T10:07:00.395Z,92.81
2024-01-24T10:08:00.296Z,92.81
2024-01-24T10:09:00.303Z,92.56
2024-01-24T10:10:00.689Z,92.56
2024-01-24T10:11:00.262Z,92.56
2024-01-24T10:12:00.252Z,92.15
2024-01-24T10:13:00.435Z,92.15
2024-01-24T10:14:00.252Z,92.05
2024-01-24T10:15:00.266Z,92.05
2024-01-24T10:16:00.358Z,92.05
2024-01-24T10:17:00.187Z,91.85
2024-01-24T10:18:00.306Z,91.85
2024-01-24T10:19:00.294Z,91.54
2024-01-24T10:20:00.423Z,91.03
2024-01-24T10:21:00.158Z,90.88
2024-01-24T10:22:00.231Z,90.78
2024-01-24T10:23:00.131Z,90.68
2024-01-24T10:24:00.094Z,90.37
2024-01-24T10:25:00.202Z,90.17
2024-01-24T10:26:00.124Z,89.97
2024-01-24T10:27:00.069Z,89.86
2024-01-24T10:28:00.074Z,89.72
2024-01-24T10:29:00.051Z,89.51
2024-01-24T10:30:00.044Z,89.41
2024-01-24T10:31:00.197Z,89.51
2024-01-24T10:32:00.011Z,89.61
2024-01-24T10:33:00.008Z,89.41
2024-01-24T10:34:00.096Z,89.61
2024-01-24T10:35:00.205Z,89.61
2024-01-24T10:36:05.108Z,89.72
2024-01-24T10:37:01.010Z,89.61
2024-01-24T10:37:59.929Z,89.51
2024-01-24T10:38:59.959Z,89.51
2024-01-24T10:39:59.946Z,89.51
2024-01-24T10:40:59.884Z,89.41
2024-01-24T10:41:59.867Z,89.51
2024-01-24T10:42:59.940Z,89.51
2024-01-24T10:43:59.855Z,89.41
2024-01-24T10:44:59.853Z,89.41
2024-01-24T10:45:59.902Z,89.51
2024-01-24T10:46:59.832Z,89.72
2024-01-24T10:47:59.882Z,89.41
2024-01-24T10:48:59.850Z,89.41
2024-01-24T10:49:59.889Z,89.51
2024-01-24T10:50:59.765Z,89.41
2024-01-24T10:51:59.978Z,89.41
2024-01-24T10:52:59.729Z,89.31
2024-01-24T10:53:59.805Z,89.31
2024-01-24T10:54:59.739Z,89.20
2024-01-24T10:55:59.689Z,89.31
2024-01-24T10:56:59.696Z,89.00
2024-01-24T10:57:59.735Z,89.41
2024-01-24T10:58:59.665Z,89.20
2024-01-24T10:59:59.652Z,89.20
2024-01-24T11:00:59.794Z,89.11
2024-01-24T11:01:59.634Z,89.41
2024-01-24T11:02:59.632Z,89.31
2024-01-24T11:03:59.641Z,89.20
2024-01-24T11:04:59.636Z,89.00
2024-01-24T11:05:59.629Z,89.06
2024-01-24T11:06:59.701Z,89.06
2024-01-24T11:07:59.536Z,88.85
2024-01-24T11:08:59.538Z,88.96
2024-01-24T11:09:59.570Z,88.76
2024-01-24T11:10:59.495Z,88.96
2024-01-24T11:11:59.490Z,89.17
2024-01-24T11:12:59.555Z,88.96
2024-01-24T11:13:59.465Z,88.85
2024-01-24T11:14:59.450Z,88.65
2024-01-24T11:15:59.574Z,88.85
2024-01-24T11:16:59.431Z,88.96
2024-01-24T11:17:59.444Z,89.06
2024-01-24T11:18:59.485Z,88.85
2024-01-24T11:19:59.572Z,88.65
2024-01-24T11:20:59.380Z,88.65
2024-01-24T11:21:59.430Z,88.85
2024-01-24T11:22:59.343Z,88.55
2024-01-24T11:23:59.340Z,88.55
2024-01-24T11:24:59.349Z,88.65
2024-01-24T11:25:59.326Z,88.65
2024-01-24T11:26:59.390Z,88.61
2024-01-24T11:27:59.310Z,88.45
2024-01-24T11:28:59.268Z,88.45
2024-01-24T11:29:59.257Z,88.65
2024-01-24T11:30:59.263Z,88.76
2024-01-24T11:31:59.300Z,88.76
2024-01-24T11:32:59.414Z,88.65
2024-01-24T11:33:59.307Z,88.76
2024-01-24T11:34:59.285Z,88.61
2024-01-24T11:35:59.188Z,88.41
2024-01-24T11:36:59.218Z,88.41
2024-01-24T11:38:08.586Z,88.61
2024-01-24T11:39:00.176Z,88.82
2024-01-24T11:39:59.156Z,89.06
2024-01-24T11:40:59.205Z,89.06
2024-01-24T11:41:59.114Z,88.96
2024-01-24T11:42:59.302Z,89.17
2024-01-24T11:43:59.102Z,89.17
2024-01-24T11:44:59.071Z,89.37
2024-01-24T11:45:59.152Z,89.37
2024-01-24T11:46:59.133Z,88.85
2024-01-24T11:47:59.205Z,89.06
2024-01-24T11:48:59.141Z,89.17
2024-01-24T11:49:59.059Z,89.06
2024-01-24T11:50:59.049Z,89.26
2024-01-24T11:51:59.004Z,89.26
2024-01-24T11:52:58.969Z,89.37
2024-01-24T11:53:58.957Z,89.26
2024-01-24T11:54:59.048Z,88.96
2024-01-24T11:55:58.930Z,89.06
2024-01-24T11:56:58.969Z,89.06
2024-01-24T11:57:58.916Z,88.45
2024-01-24T11:58:58.884Z,88.55
2024-01-24T11:59:58.873Z,88.65
2024-01-24T12:00:58.966Z,88.65
2024-01-24T12:01:58.838Z,88.65
2024-01-24T12:02:58.838Z,88.76
2024-01-24T12:03:58.896Z,88.55
2024-01-24T12:04:58.830Z,88.65
2024-01-24T12:05:58.825Z,88.85
2024-01-24T12:06:58.910Z,88.45
2024-01-24T12:07:58.771Z,88.76
2024-01-24T12:08:58.798Z,88.65
2024-01-24T12:09:58.827Z,88.65
2024-01-24T12:10:58.744Z,88.65
2024-01-24T12:11:58.720Z,88.55
2024-01-24T12:12:58.847Z,88.65
2024-01-24T12:13:58.695Z,88.24
2024-01-24T12:14:59.506Z,88.24
2024-01-24T12:15:58.851Z,88.35
2024-01-24T12:16:58.795Z,88.35
2024-01-24T12:17:58.681Z,88.24
2024-01-24T12:18:58.773Z,88.14
2024-01-24T12:19:58.719Z,88.24
2024-01-24T12:21:02.239Z,88.24
2024-01-24T12:21:58.603Z,88.04
2024-01-24T12:22:58.607Z,87.84
2024-01-24T12:23:58.573Z,88.04
2024-01-24T12:24:58.596Z,88.04
2024-01-24T12:25:58.544Z,87.94
2024-01-24T12:27:00.183Z,87.73
2024-01-24T12:27:58.595Z,87.43
2024-01-24T12:28:58.528Z,87.32
2024-01-24T12:29:58.491Z,87.49
2024-01-24T12:30:58.550Z,87.43
2024-01-24T12:31:58.463Z,87.49
2024-01-24T12:32:58.785Z,87.49
2024-01-24T12:33:58.586Z,87.08
2024-01-24T12:34:58.629Z,87.08
2024-01-24T12:35:58.419Z,87.18
2024-01-24T12:36:58.461Z,87.29
2024-01-24T12:37:58.379Z,87.18
2024-01-24T12:38:58.908Z,87.18
2024-01-24T12:39:58.441Z,87.18
2024-01-24T12:40:58.342Z,87.08
2024-01-24T12:41:58.353Z,87.18
2024-01-24T12:42:58.359Z,87.38
2024-01-24T12:43:58.322Z,86.98
2024-01-24T12:44:58.292Z,86.98
2024-01-24T12:45:58.289Z,87.08
2024-01-24T12:46:58.272Z,87.08
2024-01-24T12:47:58.342Z,86.77
2024-01-24T12:48:58.316Z,86.77
2024-01-24T12:49:58.318Z,86.77
2024-01-24T12:50:58.258Z,86.88
2024-01-24T12:51:58.305Z,86.88